Time;durP1;ratioP1;P1;durP2;ratioP2;P2;SDS_P1;SDS_P2;PMS_P1;PMS_P2;Temp;Humidity;BMP_temperature;BMP_pressure;BME280_temperature;BME280_humidity;BME280_pressure;Samples;Min_cycle;Max_cycle;Signal;HPM_P1;HPM_P2
2022/01/01 00:02:26;;;;;;;0.33;0.33;;;13.80;99.90;13.70;102206.00;;;;5116439;28;20242;-67
2022/01/01 00:05:02;;;;;;;0.30;0.30;;;13.60;99.90;13.60;102181.00;;;;5115039;28;20535;-67
2022/01/01 00:07:39;;;;;;;0.20;0.20;;;13.50;99.90;13.60;102200.00;;;;5116251;28;20181;-67
2022/01/01 00:10:18;;;;;;;3.20;1.33;;;13.50;99.90;13.30;102206.00;;;;5114977;28;20214;-67
2022/01/01 00:12:52;;;;;;;0.20;0.20;;;13.30;99.90;13.30;102215.00;;;;5114642;28;20685;-67
2022/01/01 00:15:30;;;;;;;0.47;0.33;;;13.20;99.90;13.30;102209.00;;;;5116169;28;20553;-67
2022/01/01 00:18:08;;;;;;;3.70;2.83;;;13.20;99.90;13.00;102200.00;;;;5115139;28;20210;-67
2022/01/01 00:20:43;;;;;;;0.30;0.30;;;13.10;99.90;13.10;102201.00;;;;5114654;28;20576;-67
2022/01/01 00:23:22;;;;;;;0.30;0.30;;;13.00;99.90;12.80;102208.00;;;;5114601;28;20550;-67
2022/01/01 00:25:56;;;;;;;0.83;0.83;;;12.90;99.90;12.90;102222.00;;;;5114573;28;20186;-67
2022/01/01 00:28:30;;;;;;;0.70;0.70;;;12.90;99.90;13.00;102219.00;;;;5114448;28;20177;-67
2022/01/01 00:31:01;;;;;;;1.20;1.17;;;12.90;99.90;13.10;102218.00;;;;5114550;28;20178;-67
2022/01/01 00:33:41;;;;;;;0.20;0.20;;;12.90;99.90;13.00;102218.00;;;;5097147;28;20291;-67
2022/01/01 00:36:12;;;;;;;0.20;0.20;;;12.90;99.90;12.90;102229.00;;;;5097755;28;20194;-67
2022/01/01 00:38:52;;;;;;;0.50;0.50;;;12.80;99.90;12.90;102225.00;;;;5114329;28;20175;-67
2022/01/01 00:41:26;;;;;;;0.63;0.63;;;12.80;99.90;13.00;102217.00;;;;5115318;28;20221;-68
2022/01/01 00:44:04;;;;;;;1.10;1.10;;;12.80;99.90;13.00;102221.00;;;;5114191;28;20184;-68
2022/01/01 00:46:38;;;;;;;0.27;0.27;;;12.80;99.90;13.00;102228.00;;;;5114512;28;20255;-67
2022/01/01 00:49:14;;;;;;;0.20;0.20;;;12.80;99.90;13.00;102206.00;;;;5114465;28;20200;-67
2022/01/01 00:51:51;;;;;;;1.30;0.70;;;12.80;99.90;12.90;102168.00;;;;5114040;28;20658;-67
2022/01/01 00:54:30;;;;;;;0.20;0.20;;;12.80;99.90;12.90;102208.00;;;;5113763;28;20247;-67
2022/01/01 00:57:07;;;;;;;1.37;1.27;;;12.70;99.90;13.00;102210.00;;;;5114764;28;20187;-67
2022/01/01 00:59:40;;;;;;;0.30;0.30;;;12.70;99.90;13.00;102202.00;;;;5114137;28;20176;-67
2022/01/01 01:02:16;;;;;;;1.50;1.50;;;12.80;99.90;12.70;102213.00;;;;5113925;28;20186;-67
2022/01/01 01:04:55;;;;;;;1.30;1.13;;;12.70;99.90;12.80;102223.00;;;;5115044;28;20587;-67
2022/01/01 01:07:34;;;;;;;1.50;1.07;;;12.80;99.90;12.90;102228.00;;;;5115262;28;20266;-67
2022/01/01 01:10:12;;;;;;;0.20;0.20;;;12.70;99.90;13.10;102210.00;;;;5115409;28;20522;-68
2022/01/01 01:12:53;;;;;;;1.07;0.97;;;12.80;99.90;12.90;102218.00;;;;5113527;28;20272;-67
2022/01/01 01:15:45;;;;;;;0.30;0.30;;;12.80;99.90;12.90;102220.00;;;;5115210;28;20209;-68
2022/01/01 01:18:22;;;;;;;0.30;0.30;;;12.80;99.90;12.90;102227.00;;;;5113309;28;20688;-67
2022/01/01 01:20:58;;;;;;;0.43;0.43;;;12.80;99.90;13.10;102219.00;;;;5114922;28;20176;-67
2022/01/01 01:23:33;;;;;;;0.60;0.60;;;12.90;99.90;13.40;102218.00;;;;5114878;28;20171;-67
2022/01/01 01:26:04;;;;;;;0.30;0.30;;;13.10;99.90;13.50;102223.00;;;;5114779;28;20171;-67
2022/01/01 01:28:47;;;;;;;2.90;1.90;;;13.10;99.90;13.60;102217.00;;;;5096429;28;20208;-67
2022/01/01 01:31:30;;;;;;;0.83;0.83;;;13.20;99.90;13.20;102200.00;;;;5113579;28;20188;-68
2022/01/01 01:34:10;;;;;;;0.30;0.30;;;13.10;99.90;13.40;102210.00;;;;5113428;28;20179;-67
2022/01/01 01:36:46;;;;;;;0.40;0.40;;;13.10;99.90;13.10;102217.00;;;;5096645;28;20274;-67
2022/01/01 01:39:23;;;;;;;0.30;0.30;;;13.10;99.90;13.10;102182.00;;;;5113301;28;20172;-67
2022/01/01 01:42:01;;;;;;;0.30;0.30;;;13.00;99.90;13.30;102208.00;;;;5096463;28;20595;-67
2022/01/01 01:44:47;;;;;;;0.60;0.60;;;13.10;99.90;13.20;102203.00;;;;5096410;28;20179;-67
2022/01/01 01:47:31;;;;;;;0.37;0.37;;;13.10;99.90;13.00;102200.00;;;;5113222;28;20180;-67
2022/01/01 01:50:11;;;;;;;1.03;0.77;;;13.00;99.90;12.90;102201.00;;;;5114880;28;20160;-67
2022/01/01 01:52:54;;;;;;;0.40;0.40;;;12.90;99.90;12.90;102200.00;;;;5112873;28;20566;-67
2022/01/01 01:55:30;;;;;;;1.13;1.00;;;12.90;99.90;12.80;102204.00;;;;5112918;28;20271;-67
2022/01/01 01:58:09;;;;;;;4.23;2.70;;;12.80;99.90;12.90;102205.00;;;;5114009;28;20643;-67
2022/01/01 02:03:34;;;;;;;0.30;0.30;;;12.80;99.90;13.10;102219.00;;;;5113140;28;20191;-67
2022/01/01 02:06:08;;;;;;;0.20;0.20;;;12.90;99.90;13.30;102212.00;;;;5112874;28;20173;-67
2022/01/01 02:08:49;;;;;;;0.70;0.70;;;13.00;99.90;13.10;102202.00;;;;5095705;28;20277;-67
2022/01/01 02:11:24;;;;;;;0.70;0.63;;;13.00;99.90;13.00;102198.00;;;;5112681;28;20160;-67
2022/01/01 02:14:13;;;;;;;0.43;0.43;;;12.90;99.90;13.40;102191.00;;;;5114034;28;20176;-67
2022/01/01 02:19:32;;;;;;;1.67;1.57;;;13.10;99.90;13.10;102202.00;;;;5113726;28;20547;-67
2022/01/01 02:22:12;;;;;;;0.30;0.30;;;13.00;99.90;13.60;102159.00;;;;5096055;28;20260;-67
2022/01/01 02:24:51;;;;;;;0.40;0.40;;;13.10;99.90;13.30;102191.00;;;;5112280;28;20172;-67
2022/01/01 02:27:25;;;;;;;0.97;0.97;;;13.10;99.90;13.30;102187.00;;;;5112855;28;20184;-67
2022/01/01 02:29:59;;;;;;;0.33;0.33;;;13.20;99.90;13.10;102179.00;;;;5114031;28;20643;-68
2022/01/01 02:32:36;;;;;;;0.30;0.30;;;13.00;99.90;12.80;102186.00;;;;5112565;28;20210;-66
2022/01/01 02:35:18;;;;;;;0.30;0.30;;;12.90;99.90;13.20;102150.00;;;;5112641;28;20207;-67
2022/01/01 02:37:55;;;;;;;2.40;2.20;;;12.90;99.90;13.20;102187.00;;;;5112316;28;20515;-67
2022/01/01 02:40:29;;;;;;;0.30;0.30;;;12.90;99.90;13.40;102186.00;;;;5112238;28;20176;-67
2022/01/01 02:43:09;;;;;;;0.57;0.57;;;13.00;99.90;13.00;102184.00;;;;5113569;28;20535;-67
2022/01/01 02:45:49;;;;;;;0.23;0.23;;;13.00;99.90;12.90;102194.00;;;;5112605;28;20504;-67
2022/01/01 02:48:26;;;;;;;0.30;0.30;;;12.90;99.90;13.40;102199.00;;;;5112416;28;20183;-67
2022/01/01 02:51:03;;;;;;;0.30;0.30;;;13.00;99.90;13.60;102203.00;;;;5113877;28;20162;-67
2022/01/01 02:53:43;;;;;;;0.30;0.30;;;13.10;99.90;13.20;102204.00;;;;5113361;28;20194;-67
2022/01/01 02:56:20;;;;;;;0.30;0.30;;;13.00;99.90;13.60;102192.00;;;;5113517;28;20197;-66
2022/01/01 02:58:51;;;;;;;0.83;0.83;;;13.10;99.90;13.10;102217.00;;;;5113762;28;20544;-68
2022/01/01 03:01:23;;;;;;;0.30;0.30;;;13.00;99.90;13.60;102211.00;;;;5112213;28;20172;-67
2022/01/01 03:03:51;;;;;;;0.30;0.30;;;13.10;99.90;13.40;102174.00;;;;5095284;28;20185;-66
2022/01/01 03:06:45;;;;;;;0.30;0.30;;;13.10;99.90;13.70;102211.00;;;;5112127;28;20198;-67
2022/01/01 03:09:20;;;;;;;0.30;0.30;;;13.20;99.90;13.30;102209.00;;;;5112388;28;20164;-66
2022/01/01 03:11:53;;;;;;;0.20;0.20;;;13.20;99.90;13.40;102208.00;;;;5112042;28;20222;-67
2022/01/01 03:14:27;;;;;;;0.30;0.30;;;13.10;99.90;14.00;102207.00;;;;5111951;28;20651;-67
2022/01/01 03:17:08;;;;;;;0.30;0.30;;;13.40;99.90;13.60;102208.00;;;;5111984;28;20633;-66
2022/01/01 03:19:45;;;;;;;0.40;0.30;;;13.40;99.90;13.60;102169.00;;;;5115099;28;20241;-67
2022/01/01 03:22:19;;;;;;;0.73;0.60;;;13.40;99.90;13.40;102183.00;;;;5115704;28;20179;-67
2022/01/01 03:24:58;;;;;;;0.83;0.83;;;13.30;99.90;13.10;102180.00;;;;5116987;28;20224;-66
2022/01/01 03:27:31;;;;;;;1.47;1.37;;;13.10;99.90;12.90;102192.00;;;;5117103;28;20351;-67
2022/01/01 03:30:07;;;;;;;0.40;0.40;;;13.00;99.90;12.80;102178.00;;;;5116075;28;20168;-66
2022/01/01 03:32:46;;;;;;;0.30;0.30;;;12.90;99.90;13.00;102189.00;;;;5115503;28;20217;-67
2022/01/01 03:35:20;;;;;;;0.30;0.30;;;12.80;99.90;13.10;102198.00;;;;5116558;28;20632;-67
2022/01/01 03:37:58;;;;;;;0.30;0.30;;;12.80;99.90;13.30;102163.00;;;;5115707;28;20180;-66
2022/01/01 03:40:34;;;;;;;0.70;0.70;;;13.00;99.90;12.90;102193.00;;;;5114803;28;20198;-66
2022/01/01 03:43:09;;;;;;;0.30;0.30;;;12.80;99.90;12.80;102198.00;;;;5115478;28;20184;-67
2022/01/01 03:45:42;;;;;;;0.50;0.50;;;12.70;99.90;12.80;102206.00;;;;5116829;28;20227;-67
2022/01/01 03:48:22;;;;;;;0.77;0.77;;;12.70;99.90;12.50;102209.00;;;;5115292;28;20310;-67
2022/01/01 03:50:58;;;;;;;0.40;0.40;;;12.60;99.90;12.60;102161.00;;;;5115182;28;20160;-66
2022/01/01 03:53:35;;;;;;;0.60;0.60;;;12.50;99.90;12.90;102163.00;;;;5116489;28;20599;-67
2022/01/01 03:56:11;;;;;;;0.87;0.73;;;12.60;99.90;12.70;102200.00;;;;5115345;28;20218;-66
2022/01/01 03:58:48;;;;;;;0.30;0.30;;;12.50;99.90;12.60;102205.00;;;;5115967;28;20282;-66
2022/01/01 04:01:22;;;;;;;0.30;0.30;;;12.50;99.90;12.80;102209.00;;;;5115451;28;20187;-66
2022/01/01 04:03:59;;;;;;;0.30;0.30;;;12.50;99.90;12.60;102208.00;;;;5098729;28;20182;-67
2022/01/01 04:06:36;;;;;;;0.40;0.40;;;12.40;99.90;12.20;102210.00;;;;5097885;28;20178;-67
2022/01/01 04:09:14;;;;;;;0.30;0.30;;;12.30;99.90;12.60;102214.00;;;;5116349;28;20181;-67
2022/01/01 04:11:52;;;;;;;0.30;0.30;;;12.30;99.90;12.60;102220.00;;;;5098852;28;20201;-67
2022/01/01 04:14:31;;;;;;;0.77;0.70;;;12.50;99.90;12.50;102209.00;;;;5114850;28;20179;-66
2022/01/01 04:17:12;;;;;;;0.50;0.50;;;12.40;99.90;12.60;102205.00;;;;5114938;28;20510;-66
2022/01/01 04:19:49;;;;;;;0.30;0.30;;;12.40;99.90;12.70;102174.00;;;;5115040;28;20210;-66
2022/01/01 04:22:23;;;;;;;1.43;1.33;;;12.40;99.90;12.40;102193.00;;;;5114986;28;20181;-67
2022/01/01 04:25:02;;;;;;;0.30;0.30;;;12.30;99.90;12.70;102204.00;;;;5115954;28;20267;-66
2022/01/01 04:27:39;;;;;;;0.77;0.77;;;12.40;99.90;12.50;102197.00;;;;5115909;28;20653;-66
2022/01/01 04:30:16;;;;;;;0.30;0.30;;;12.30;99.90;12.30;102198.00;;;;5115559;28;20180;-66
2022/01/01 04:32:52;;;;;;;10.30;1.07;;;12.30;99.90;12.30;102200.00;;;;5114549;28;20217;-66
2022/01/01 04:35:27;;;;;;;0.30;0.30;;;12.20;99.90;12.20;102188.00;;;;5115340;28;20158;-66
2022/01/01 04:38:02;;;;;;;0.57;0.57;;;12.10;99.90;12.00;102193.00;;;;5114547;28;20182;-66
2022/01/01 04:40:36;;;;;;;0.30;0.30;;;12.00;99.90;11.70;102195.00;;;;5114499;28;20274;-66
2022/01/01 04:43:12;;;;;;;0.20;0.20;;;11.90;99.90;11.80;102207.00;;;;5115672;28;20268;-66
2022/01/01 04:45:48;;;;;;;0.87;0.87;;;11.80;99.90;11.70;102196.00;;;;5114167;28;20558;-66
2022/01/01 04:48:25;;;;;;;0.20;0.20;;;11.80;99.90;11.90;102165.00;;;;5114083;28;20301;-66
2022/01/01 04:51:06;;;;;;;1.87;1.80;;;11.80;99.90;11.90;102195.00;;;;5113664;28;20215;-66
2022/01/01 04:53:44;;;;;;;0.20;0.20;;;11.80;99.90;11.90;102202.00;;;;5115364;28;20654;-66
2022/01/01 04:56:23;;;;;;;0.50;0.50;;;11.80;99.90;11.60;102210.00;;;;5115140;28;20213;-66
2022/01/01 04:59:03;;;;;;;0.20;0.20;;;11.80;99.90;11.80;102198.00;;;;5114280;28;20183;-67
2022/01/01 05:01:34;;;;;;;0.30;0.30;;;11.80;99.90;12.00;102209.00;;;;5114112;28;20169;-67
2022/01/01 05:04:03;;;;;;;0.70;0.33;;;11.80;99.90;11.80;102202.00;;;;5114997;28;20212;-69
2022/01/01 05:06:40;;;;;;;0.30;0.30;;;11.80;99.90;12.00;102203.00;;;;5114706;28;20530;-67
2022/01/01 05:09:16;;;;;;;0.30;0.30;;;11.90;99.90;11.90;102205.00;;;;5115254;28;20179;-69
2022/01/01 05:11:57;;;;;;;0.63;0.63;;;11.80;99.90;12.00;102209.00;;;;5115010;28;20204;-67
2022/01/01 05:14:37;;;;;;;0.30;0.30;;;11.90;99.90;12.30;102207.00;;;;5115092;28;20213;-67
2022/01/01 05:17:14;;;;;;;0.30;0.30;;;12.10;99.90;12.00;102209.00;;;;5113440;28;20172;-67
2022/01/01 05:19:51;;;;;;;1.07;1.07;;;12.00;99.90;12.20;102209.00;;;;5113690;28;20686;-67
2022/01/01 05:22:28;;;;;;;0.73;0.73;;;12.10;99.90;12.20;102207.00;;;;5113571;28;20179;-68
2022/01/01 05:25:05;;;;;;;0.30;0.30;;;12.10;99.90;12.50;102191.00;;;;5114890;28;20189;-68
2022/01/01 05:27:40;;;;;;;0.30;0.30;;;12.20;99.90;12.40;102210.00;;;;5113620;28;20176;-67
2022/01/01 05:30:20;;;;;;;0.50;0.50;;;12.30;99.90;12.20;102199.00;;;;5113850;28;20183;-67
2022/01/01 05:32:57;;;;;;;0.30;0.30;;;12.20;99.90;12.10;102204.00;;;;5114205;28;20220;-66
2022/01/01 05:35:35;;;;;;;0.50;0.50;;;12.10;99.90;12.10;102168.00;;;;5113345;28;20259;-67
2022/01/01 05:38:17;;;;;;;0.40;0.40;;;12.10;99.90;12.00;102187.00;;;;5113531;28;20168;-67
2022/01/01 05:40:51;;;;;;;0.73;0.73;;;12.10;99.90;12.20;102194.00;;;;5112915;28;20628;-66
2022/01/01 05:43:32;;;;;;;2.53;1.37;;;12.10;99.90;12.10;102180.00;;;;5113180;28;20637;-67
2022/01/01 05:46:11;;;;;;;0.93;0.93;;;12.10;99.90;12.00;102199.00;;;;5112726;28;20603;-67
2022/01/01 05:48:48;;;;;;;0.50;0.50;;;12.10;99.90;12.20;102199.00;;;;5113153;28;20277;-67
2022/01/01 05:51:24;;;;;;;0.43;0.43;;;12.10;99.90;12.00;102155.00;;;;5113060;28;20179;-67
2022/01/01 05:54:02;;;;;;;0.37;0.37;;;12.10;99.90;12.10;102186.00;;;;5096256;28;20186;-67
2022/01/01 05:56:33;;;;;;;0.70;0.70;;;12.10;99.90;12.10;102191.00;;;;5113271;28;20190;-66
2022/01/01 05:59:09;;;;;;;0.97;0.97;;;12.10;99.90;12.10;102183.00;;;;5114241;28;20186;-66
2022/01/01 06:01:45;;;;;;;1.30;1.17;;;12.10;99.90;11.90;102200.00;;;;5112815;28;20180;-66
2022/01/01 06:04:16;;;;;;;0.40;0.40;;;12.10;99.90;12.50;102202.00;;;;5114009;28;20177;-67
2022/01/01 06:06:56;;;;;;;0.30;0.30;;;12.20;99.90;12.60;102195.00;;;;5112788;28;20302;-67
2022/01/01 06:09:29;;;;;;;0.30;0.30;;;12.40;99.90;12.20;102193.00;;;;5112784;28;20172;-66
2022/01/01 06:12:04;;;;;;;0.60;0.60;;;12.30;99.90;12.00;102186.00;;;;5114127;28;20210;-66
2022/01/01 06:14:38;;;;;;;2.63;1.00;;;12.10;99.90;12.00;102173.00;;;;5112620;28;20185;-66
2022/01/01 06:17:13;;;;;;;0.70;0.63;;;12.10;99.90;11.80;102174.00;;;;5112469;28;20181;-66
2022/01/01 06:19:44;;;;;;;0.37;0.37;;;12.00;99.90;11.90;102184.00;;;;5112729;28;20181;-67
2022/01/01 06:22:18;;;;;;;1.27;1.13;;;12.00;99.90;11.70;102183.00;;;;5112791;28;20540;-66
2022/01/01 06:24:57;;;;;;;0.40;0.40;;;11.90;99.90;11.80;102185.00;;;;5113702;28;20202;-66
2022/01/01 06:27:38;;;;;;;1.67;1.20;;;11.90;99.90;11.80;102191.00;;;;5112467;28;20182;-68
2022/01/01 06:30:17;;;;;;;1.53;1.43;;;11.80;99.90;11.90;102189.00;;;;5095924;28;20183;-69
2022/01/01 06:32:56;;;;;;;0.50;0.50;;;11.90;99.90;11.80;102190.00;;;;5095304;28;20244;-67
2022/01/01 06:35:37;;;;;;;1.60;1.27;;;11.90;99.90;11.90;102188.00;;;;5113733;28;20697;-67
2022/01/01 06:38:15;;;;;;;2.30;1.37;;;11.90;99.90;11.70;102191.00;;;;5113485;28;20640;-67
2022/01/01 06:40:54;;;;;;;0.20;0.20;;;11.80;99.90;11.90;102184.00;;;;5112605;28;20647;-67
2022/01/01 06:43:31;;;;;;;0.27;0.27;;;11.80;99.90;11.60;102191.00;;;;5113535;28;20192;-67
2022/01/01 06:46:09;;;;;;;1.97;1.87;;;11.70;99.90;11.70;102194.00;;;;5095045;28;20181;-67
2022/01/01 06:48:42;;;;;;;2.27;2.10;;;11.60;99.90;11.70;102192.00;;;;5113250;28;20197;-67
2022/01/01 06:51:17;;;;;;;0.40;0.40;;;11.60;99.90;12.00;102190.00;;;;5113689;28;20273;-67
2022/01/01 06:53:50;;;;;;;2.63;1.67;;;11.70;99.90;11.50;102152.00;;;;5114003;28;20224;-67
2022/01/01 06:56:21;;;;;;;2.33;2.17;;;11.60;99.90;11.80;102191.00;;;;5117663;28;20175;-67
2022/01/01 06:59:01;;;;;;;1.20;1.10;;;11.70;99.90;11.50;102174.00;;;;5115889;28;20210;-68
2022/01/01 07:01:35;;;;;;;0.23;0.23;;;11.60;99.90;11.40;102184.00;;;;5116595;28;20182;-67
2022/01/01 07:04:10;;;;;;;1.37;0.97;;;11.50;99.90;11.60;102184.00;;;;5116709;28;20264;-67
2022/01/01 07:06:48;;;;;;;0.67;0.50;;;11.60;99.90;11.30;102192.00;;;;5116657;28;20205;-70
2022/01/01 07:09:21;;;;;;;0.67;0.67;;;11.50;99.90;11.60;102152.00;;;;5116127;28;20177;-67
2022/01/01 07:12:04;;;;;;;2.87;2.60;;;11.60;99.90;11.20;102191.00;;;;5116344;28;20902;-69
2022/01/01 07:14:39;;;;;;;0.77;0.77;;;11.40;99.90;11.30;102190.00;;;;5117088;28;20650;-68
2022/01/01 07:17:18;;;;;;;0.30;0.30;;;11.40;99.90;11.20;102191.00;;;;5116734;28;20525;-68
2022/01/01 07:20:00;;;;;;;0.67;0.67;;;11.40;99.90;11.30;102200.00;;;;5116200;28;20178;-67
2022/01/01 07:22:42;;;;;;;0.50;0.50;;;11.30;99.90;11.50;102181.00;;;;5117484;27;20177;-67
2022/01/01 07:25:25;;;;;;;1.97;1.33;;;11.40;99.90;11.20;102219.00;;;;5115865;28;20184;-67
2022/01/01 07:28:09;;;;;;;0.40;0.40;;;11.30;99.90;11.40;102212.00;;;;5115640;28;20286;-67
2022/01/01 07:30:45;;;;;;;1.63;1.37;;;11.30;99.90;11.50;102216.00;;;;5117102;28;20177;-68
2022/01/01 07:33:22;;;;;;;4.53;3.33;;;11.40;99.90;11.40;102209.00;;;;5098478;28;20265;-68
2022/01/01 07:35:58;;;;;;;0.50;0.50;;;11.40;99.90;11.70;102228.00;;;;5115650;28;20205;-68
2022/01/01 07:38:35;;;;;;;1.37;1.23;;;11.50;99.90;11.90;102200.00;;;;5115920;28;20260;-68
2022/01/01 07:41:09;;;;;;;0.20;0.20;;;11.60;99.90;12.20;102221.00;;;;5115723;28;20627;-68
2022/01/01 07:43:42;;;;;;;0.53;0.53;;;11.80;99.90;11.80;102224.00;;;;5116543;28;20182;-68
2022/01/01 07:46:20;;;;;;;0.30;0.30;;;11.80;99.90;12.20;102215.00;;;;5115577;28;20268;-68
2022/01/01 07:48:54;;;;;;;1.43;1.43;;;11.70;99.90;11.90;102227.00;;;;5115696;28;20226;-67
2022/01/01 07:51:33;;;;;;;0.50;0.50;;;11.70;99.90;11.70;102228.00;;;;5085176;28;20222;-67
2022/01/01 07:54:12;;;;;;;1.67;1.57;;;11.60;99.90;11.50;102217.00;;;;5058397;28;20187;-67
2022/01/01 07:56:49;;;;;;;1.33;1.27;;;11.60;99.90;12.10;102220.00;;;;5074440;28;20186;-67
2022/01/01 07:59:27;;;;;;;0.77;0.77;;;11.70;99.90;11.60;102228.00;;;;5074504;28;20247;-67
2022/01/01 08:02:01;;;;;;;0.87;0.87;;;11.60;99.90;11.60;102226.00;;;;5074445;28;20195;-67
2022/01/01 08:04:32;;;;;;;0.30;0.30;;;11.60;99.90;11.90;102221.00;;;;5074179;28;20198;-67
2022/01/01 08:07:06;;;;;;;1.90;1.80;;;11.70;99.90;11.60;102220.00;;;;5074437;28;20215;-67
2022/01/01 08:09:42;;;;;;;1.93;1.63;;;11.60;99.90;11.40;102191.00;;;;5073972;28;20186;-67
2022/01/01 08:12:14;;;;;;;3.17;2.70;;;11.60;99.90;11.60;102232.00;;;;5073959;28;20207;-67
2022/01/01 08:14:56;;;;;;;1.03;1.03;;;11.60;99.90;11.40;102225.00;;;;5074341;28;20187;-67
2022/01/01 08:17:31;;;;;;;0.20;0.20;;;11.50;99.90;11.60;102222.00;;;;5074591;28;20167;-67
2022/01/01 08:20:05;;;;;;;5.37;1.73;;;11.60;99.90;11.60;102219.00;;;;5073899;28;20188;-68
2022/01/01 08:22:38;;;;;;;4.93;3.57;;;11.60;99.90;11.60;102222.00;;;;5075514;28;20703;-67
2022/01/01 08:25:16;;;;;;;5.30;1.03;;;11.60;99.90;11.80;102218.00;;;;5075439;28;20179;-67
2022/01/01 08:27:56;;;;;;;1.07;1.07;;;11.70;99.90;11.30;102221.00;;;;5074381;28;20185;-67
2022/01/01 08:30:33;;;;;;;0.60;0.60;;;11.50;99.90;11.50;102223.00;;;;5075222;28;20183;-67
2022/01/01 08:33:10;;;;;;;0.20;0.20;;;11.50;99.90;11.50;102228.00;;;;5073962;28;20218;-68
2022/01/01 08:35:45;;;;;;;0.30;0.30;;;11.50;99.90;11.90;102214.00;;;;5075177;28;20179;-69
2022/01/01 08:38:22;;;;;;;1.17;1.17;;;11.60;99.90;11.70;102163.00;;;;5073939;28;20181;-67
2022/01/01 08:41:01;;;;;;;2.40;2.20;;;11.70;99.90;11.70;102209.00;;;;5074724;28;20547;-67
2022/01/01 08:43:38;;;;;;;4.40;1.90;;;11.70;99.90;11.50;102220.00;;;;5090791;28;20557;-67
2022/01/01 08:46:18;;;;;;;0.40;0.40;;;11.60;99.90;11.50;102212.00;;;;5075029;28;20183;-67
2022/01/01 08:48:55;;;;;;;3.33;3.03;;;11.60;99.90;11.70;102220.00;;;;5074936;28;20184;-68
2022/01/01 08:51:30;;;;;;;5.77;3.30;;;11.60;99.90;11.90;102211.00;;;;5073490;28;20535;-68
2022/01/01 08:54:00;;;;;;;2.87;2.67;;;11.70;99.90;11.70;102187.00;;;;5073895;28;20161;-68
2022/01/01 08:56:30;;;;;;;2.83;2.47;;;11.70;99.90;12.10;102206.00;;;;5090066;28;20224;-68
2022/01/01 08:59:14;;;;;;;1.23;1.13;;;11.90;99.90;12.10;102211.00;;;;5073720;28;20201;-68
2022/01/01 09:01:45;;;;;;;1.10;1.10;;;11.90;99.90;11.90;102198.00;;;;5073438;28;20227;-68
2022/01/01 09:04:21;;;;;;;1.93;1.83;;;11.80;99.90;11.80;102199.00;;;;5073770;28;20187;-68
2022/01/01 09:06:59;;;;;;;2.50;1.60;;;11.80;99.90;12.00;102203.00;;;;5074227;28;20272;-68
2022/01/01 09:09:38;;;;;;;3.43;2.07;;;11.90;99.90;12.00;102194.00;;;;5074602;28;20163;-68
2022/01/01 09:12:18;;;;;;;3.73;2.33;;;11.90;99.90;11.70;102184.00;;;;5073290;28;20197;-69
2022/01/01 09:14:55;;;;;;;0.77;0.77;;;11.80;99.90;11.70;102189.00;;;;5073312;28;20651;-68
2022/01/01 09:17:26;;;;;;;3.00;2.73;;;11.80;99.90;11.90;102180.00;;;;5072248;28;20614;-67
2022/01/01 09:20:03;;;;;;;2.83;1.93;;;11.80;99.90;11.70;102176.00;;;;5074529;28;20171;-67
2022/01/01 09:22:39;;;;;;;3.30;3.00;;;11.80;99.90;11.80;102177.00;;;;5072954;28;20620;-67
2022/01/01 09:25:12;;;;;;;1.50;1.23;;;11.80;99.90;11.80;102177.00;;;;5074240;28;20177;-69
2022/01/01 09:27:46;;;;;;;0.50;0.50;;;11.90;99.90;11.90;102181.00;;;;5074354;28;20178;-67
2022/01/01 09:30:20;;;;;;;6.07;3.33;;;11.90;99.90;12.00;102176.00;;;;5056866;28;20196;-67
2022/01/01 09:32:54;;;;;;;0.50;0.50;;;11.90;99.90;12.00;102169.00;;;;5074217;28;20220;-67
2022/01/01 09:35:27;;;;;;;5.73;4.20;;;11.90;99.90;11.80;102158.00;;;;5074348;28;20185;-67
2022/01/01 09:38:04;;;;;;;1.67;1.47;;;11.90;99.90;11.90;102165.00;;;;5089472;28;20220;-67
2022/01/01 09:40:44;;;;;;;2.87;1.77;;;11.90;99.90;12.20;102153.00;;;;5072930;28;20214;-67
2022/01/01 09:43:22;;;;;;;1.30;1.20;;;12.00;99.90;11.90;102126.00;;;;5072578;28;20239;-67
2022/01/01 09:46:00;;;;;;;2.13;1.07;;;11.90;99.90;11.90;102153.00;;;;5072636;28;20187;-67
2022/01/01 09:48:37;;;;;;;3.20;1.93;;;11.90;99.90;12.10;102139.00;;;;5073747;28;20266;-67
2022/01/01 09:51:09;;;;;;;1.70;1.47;;;11.90;99.90;12.00;102170.00;;;;5056411;28;20194;-69
2022/01/01 09:53:46;;;;;;;0.70;0.70;;;11.90;99.90;12.30;102167.00;;;;5055181;28;20212;-69
2022/01/01 09:56:23;;;;;;;4.07;3.80;;;12.10;99.90;12.10;102149.00;;;;5055378;28;20633;-68
2022/01/01 09:59:00;;;;;;;0.93;0.93;;;12.00;99.90;12.00;102159.00;;;;5072469;28;20254;-68
2022/01/01 10:01:36;;;;;;;2.20;1.93;;;12.00;99.90;11.90;102161.00;;;;5072520;28;20180;-68
2022/01/01 10:04:15;;;;;;;1.53;1.00;;;12.00;99.90;12.20;102171.00;;;;5071922;28;20174;-69
2022/01/01 10:07:08;;;;;;;0.20;0.20;;;12.10;99.90;12.20;102170.00;;;;5071802;28;20215;-68
2022/01/01 10:09:43;;;;;;;3.80;3.27;;;12.10;99.90;12.10;102158.00;;;;5072184;28;20592;-69
2022/01/01 10:12:38;;;;;;;2.47;1.37;;;12.20;99.90;12.50;102161.00;;;;5072278;28;20225;-67
2022/01/01 10:15:19;;;;;;;1.90;1.80;;;12.30;99.90;12.30;102177.00;;;;5072596;28;20653;-67
2022/01/01 10:17:53;;;;;;;2.10;1.93;;;12.30;99.90;12.40;102139.00;;;;5072450;28;20198;-68
2022/01/01 10:20:35;;;;;;;0.97;0.97;;;12.30;99.90;12.20;102176.00;;;;5055357;28;20181;-68
2022/01/01 10:33:31;;;;;;;0.97;0.97;;;11.90;99.90;11.80;102156.00;;;;5050678;28;20596;-68
2022/01/01 10:36:10;;;;;;;0.40;0.40;;;11.90;99.90;12.20;102134.00;;;;5049364;28;20237;-68
2022/01/01 10:38:45;;;;;;;2.37;1.67;;;12.10;99.90;12.30;102135.00;;;;5049656;28;20156;-68
2022/01/01 10:41:18;;;;;;;1.43;1.33;;;12.20;99.90;12.40;102142.00;;;;5049678;28;20188;-69
2022/01/01 10:43:50;;;;;;;1.97;1.87;;;12.30;99.90;12.60;102132.00;;;;5049230;28;20180;-69
2022/01/01 10:46:27;;;;;;;2.53;2.23;;;12.50;99.90;12.30;102143.00;;;;5049488;28;20174;-69
2022/01/01 10:49:19;;;;;;;0.47;0.47;;;12.50;99.90;12.60;102139.00;;;;5049324;28;20655;-69
2022/01/01 10:52:01;;;;;;;1.37;1.27;;;12.50;99.90;12.70;102137.00;;;;5049175;28;20198;-68
2022/01/01 10:54:46;;;;;;;0.83;0.83;;;12.60;99.90;13.00;102133.00;;;;5049249;28;20189;-69
2022/01/01 10:57:29;;;;;;;0.40;0.40;;;12.70;99.90;13.10;102130.00;;;;5032383;28;20178;-68
2022/01/01 11:00:44;;;;;;;2.47;2.23;;;13.00;99.90;12.60;102119.00;;;;5049067;28;20179;-68
2022/01/01 11:03:21;;;;;;;0.20;0.20;;;12.80;99.90;13.30;102135.00;;;;5050041;28;20212;-69
2022/01/01 11:06:10;;;;;;;0.53;0.53;;;13.00;99.90;14.00;102145.00;;;;5048564;28;20190;-68
2022/01/01 11:08:46;;;;;;;0.37;0.37;;;13.40;99.90;13.90;102137.00;;;;5048688;28;20525;-69
2022/01/01 11:11:20;;;;;;;0.40;0.40;;;13.60;99.90;13.40;102134.00;;;;5049015;28;20247;-69
2022/01/01 11:13:56;;;;;;;1.30;1.20;;;13.60;99.90;13.70;102122.00;;;;5049801;28;20184;-68
2022/01/01 11:16:31;;;;;;;0.50;0.50;;;13.70;99.90;13.70;102120.00;;;;5048755;28;20239;-69
2022/01/01 11:19:11;;;;;;;3.20;2.33;;;13.70;99.90;13.90;102130.00;;;;5048621;28;20590;-69
2022/01/01 11:21:47;;;;;;;0.30;0.30;;;13.80;99.90;14.10;102093.00;;;;5048519;28;20665;-68
2022/01/01 11:24:25;;;;;;;2.57;2.30;;;13.90;99.90;14.00;102109.00;;;;5048633;28;20669;-68
2022/01/01 11:27:00;;;;;;;2.10;2.00;;;14.00;99.90;13.80;102110.00;;;;5048430;28;20575;-68
2022/01/01 11:29:35;;;;;;;1.63;1.53;;;14.00;99.90;13.80;102116.00;;;;5048331;28;20234;-68
2022/01/01 11:32:17;;;;;;;0.50;0.50;;;13.80;99.90;13.90;102111.00;;;;5048188;28;20212;-69
2022/01/01 11:34:52;;;;;;;0.77;0.77;;;13.90;99.90;13.40;102112.00;;;;5048177;28;20209;-68
2022/01/01 11:37:53;;;;;;;2.73;1.90;;;13.60;99.90;13.90;102095.00;;;;5048707;28;20226;-68
2022/01/01 11:40:56;;;;;;;0.47;0.47;;;13.70;99.90;14.30;102086.00;;;;5048156;28;20171;-68
2022/01/01 11:43:40;;;;;;;0.83;0.83;;;14.00;99.90;14.10;102075.00;;;;5069956;28;20196;-69
2022/01/01 11:46:15;;;;;;;0.53;0.53;;;14.20;99.90;13.90;102065.00;;;;5036344;28;20260;-68
2022/01/01 11:48:54;;;;;;;0.30;0.30;;;14.10;99.90;14.20;102067.00;;;;5034719;28;20187;-69